createdAt,value
2023-05-16T00:00:35.624Z,18.83
2023-05-16T00:03:24.267Z,18.84
2023-05-16T00:05:53.606Z,18.83
2023-05-16T00:08:22.222Z,18.83
2023-05-16T00:10:51.238Z,18.83
2023-05-16T00:13:25.498Z,18.77
2023-05-16T00:15:55.639Z,18.78
2023-05-16T00:18:27.336Z,18.82
2023-05-16T00:20:56.414Z,18.83
2023-05-16T00:23:24.941Z,18.84
2023-05-16T00:25:53.848Z,18.83
2023-05-16T00:28:22.289Z,18.84
2023-05-16T00:30:51.150Z,18.83
2023-05-16T00:33:19.645Z,18.80
2023-05-16T00:35:49.587Z,18.83
2023-05-16T00:38:20.341Z,18.84
2023-05-16T00:40:49.110Z,18.84
2023-05-16T00:43:17.496Z,18.80
2023-05-16T00:45:46.507Z,18.84
2023-05-16T00:48:15.054Z,18.84
2023-05-16T00:50:44.150Z,18.81
2023-05-16T00:53:13.673Z,18.80
2023-05-16T00:55:42.922Z,18.81
2023-05-16T00:58:12.334Z,18.81
2023-05-16T01:00:41.258Z,18.81
2023-05-16T01:03:09.830Z,18.81
2023-05-16T01:05:39.962Z,18.83
2023-05-16T01:08:08.361Z,18.81
2023-05-16T01:10:54.928Z,18.78
2023-05-16T01:13:29.376Z,18.82
2023-05-16T01:16:12.837Z,18.82
2023-05-16T01:19:06.255Z,18.79
2023-05-16T01:22:05.799Z,18.81
2023-05-16T01:24:38.746Z,18.80
2023-05-16T01:27:07.561Z,18.80
2023-05-16T01:29:35.951Z,18.80
2023-05-16T01:32:06.732Z,18.80
2023-05-16T01:34:35.241Z,18.81
2023-05-16T01:37:21.993Z,18.80
2023-05-16T01:39:58.334Z,18.81
2023-05-16T01:42:28.715Z,18.77
2023-05-16T01:45:29.946Z,18.78
2023-05-16T01:48:09.268Z,18.81
2023-05-16T01:50:44.114Z,18.78
2023-05-16T01:53:33.906Z,18.80
2023-05-16T01:56:02.582Z,18.80
2023-05-16T01:58:35.225Z,18.80
2023-05-16T02:01:05.346Z,18.78
2023-05-16T02:03:35.032Z,18.79
2023-05-16T02:06:03.488Z,18.79
2023-05-16T02:08:32.315Z,18.78
2023-05-16T02:11:00.979Z,18.80
2023-05-16T02:13:29.695Z,18.80
2023-05-16T02:15:58.238Z,18.79
2023-05-16T02:18:28.546Z,18.79
2023-05-16T02:20:57.071Z,18.75
2023-05-16T02:23:26.156Z,18.79
2023-05-16T02:25:55.331Z,18.79
2023-05-16T02:28:25.492Z,18.78
2023-05-16T02:31:00.885Z,18.77
2023-05-16T02:33:29.796Z,18.79
2023-05-16T02:35:58.297Z,18.79
2023-05-16T02:38:28.143Z,18.78
2023-05-16T02:40:57.631Z,18.78
2023-05-16T02:43:26.586Z,18.79
2023-05-16T02:45:55.088Z,18.78
2023-05-16T02:48:23.913Z,18.79
2023-05-16T02:50:53.353Z,18.78
2023-05-16T02:53:22.111Z,18.75
2023-05-16T02:55:50.504Z,18.78
2023-05-16T02:58:19.403Z,18.74
2023-05-16T03:00:47.841Z,18.75
2023-05-16T03:03:17.017Z,18.77
2023-05-16T03:05:46.592Z,18.79
2023-05-16T03:08:15.504Z,18.78
2023-05-16T03:10:44.024Z,18.74
2023-05-16T03:13:12.753Z,18.79
2023-05-16T03:15:41.293Z,18.79
2023-05-16T03:18:12.509Z,18.79
2023-05-16T03:20:40.980Z,18.78
2023-05-16T03:23:09.930Z,18.73
2023-05-16T03:25:38.584Z,18.78
2023-05-16T03:28:10.840Z,18.79
2023-05-16T03:30:39.256Z,18.78
2023-05-16T03:33:08.181Z,18.78
2023-05-16T03:35:36.648Z,18.77
2023-05-16T03:38:05.405Z,18.77
2023-05-16T03:40:33.936Z,18.76
2023-05-16T03:43:02.749Z,18.77
2023-05-16T03:45:31.845Z,18.78
2023-05-16T03:48:01.010Z,18.75
2023-05-16T03:50:29.446Z,18.75
2023-05-16T03:52:58.539Z,18.75
2023-05-16T03:55:27.223Z,18.75
2023-05-16T03:57:56.319Z,18.72
2023-05-16T04:00:24.836Z,18.75
2023-05-16T04:02:53.751Z,18.74
2023-05-16T04:05:22.271Z,18.74
2023-05-16T04:07:51.149Z,18.74
2023-05-16T04:10:19.920Z,18.73
2023-05-16T04:12:49.154Z,18.74
2023-05-16T04:15:17.590Z,18.74
2023-05-16T04:17:46.586Z,18.75
2023-05-16T04:20:15.329Z,18.74
2023-05-16T04:22:44.212Z,18.74
2023-05-16T04:25:14.567Z,18.73
2023-05-16T04:27:43.555Z,18.75
2023-05-16T04:30:12.878Z,18.74
2023-05-16T04:32:41.841Z,18.74
2023-05-16T04:35:10.716Z,18.73
2023-05-16T04:37:39.613Z,18.75
2023-05-16T04:40:10.105Z,18.74
2023-05-16T04:42:39.178Z,18.74
2023-05-16T04:45:11.889Z,18.74
2023-05-16T04:47:41.106Z,18.72
2023-05-16T04:50:10.320Z,18.72
2023-05-16T04:52:39.633Z,18.71
2023-05-16T04:55:08.979Z,18.71
2023-05-16T04:57:38.003Z,18.71
2023-05-16T05:00:10.751Z,18.71
2023-05-16T05:02:43.993Z,18.71
2023-05-16T05:05:12.946Z,18.66
2023-05-16T05:07:41.880Z,18.70
2023-05-16T05:10:12.069Z,18.70
2023-05-16T05:12:41.127Z,18.66
2023-05-16T05:15:09.989Z,18.69
2023-05-16T05:17:39.386Z,18.70
2023-05-16T05:20:08.835Z,18.68
2023-05-16T05:22:37.717Z,18.67
2023-05-16T05:25:06.921Z,18.69
2023-05-16T05:27:35.910Z,18.68
2023-05-16T05:30:04.932Z,18.66
2023-05-16T05:32:33.946Z,18.66
2023-05-16T05:35:04.103Z,18.66
2023-05-16T05:37:32.940Z,18.68
2023-05-16T05:40:01.540Z,18.67
2023-05-16T05:42:30.317Z,18.68
2023-05-16T05:44:58.851Z,18.62
2023-05-16T05:47:27.839Z,18.61
2023-05-16T05:49:56.626Z,18.62
2023-05-16T05:52:25.647Z,18.61
2023-05-16T05:54:54.788Z,18.59
2023-05-16T05:57:23.664Z,18.56
2023-05-16T05:59:52.154Z,18.58
2023-05-16T06:02:21.583Z,18.51
2023-05-16T06:04:50.750Z,18.57
2023-05-16T06:07:19.960Z,18.55
2023-05-16T06:09:48.561Z,18.58
2023-05-16T06:12:17.786Z,18.60
2023-05-16T06:14:46.327Z,18.52
2023-05-16T06:17:15.260Z,18.57
2023-05-16T06:19:43.819Z,18.55
2023-05-16T06:22:12.745Z,18.57
2023-05-16T06:24:41.393Z,18.55
2023-05-16T06:27:10.532Z,18.58
2023-05-16T06:29:39.096Z,18.58
2023-05-16T06:32:09.352Z,18.54
2023-05-16T06:34:38.940Z,18.61
2023-05-16T06:37:07.827Z,18.61
2023-05-16T06:39:36.413Z,18.61
2023-05-16T06:42:05.732Z,18.63
2023-05-16T06:44:34.722Z,18.61
2023-05-16T06:47:03.792Z,18.59
2023-05-16T06:49:32.577Z,18.66
2023-05-16T06:52:01.508Z,18.62
2023-05-16T06:54:30.134Z,18.61
2023-05-16T06:56:59.114Z,18.62
2023-05-16T06:59:28.249Z,18.61
2023-05-16T07:01:57.376Z,18.61
2023-05-16T07:04:26.030Z,18.64
2023-05-16T07:06:54.939Z,18.61
2023-05-16T07:09:23.478Z,18.66
2023-05-16T07:11:52.599Z,18.64
2023-05-16T07:14:21.120Z,18.66
2023-05-16T07:16:50.015Z,18.67
2023-05-16T07:19:18.625Z,18.68
2023-05-16T07:21:47.619Z,18.68
2023-05-16T07:24:16.098Z,18.69
2023-05-16T07:26:45.384Z,18.68
2023-05-16T07:29:13.956Z,18.69
2023-05-16T07:31:42.807Z,18.65
2023-05-16T07:34:12.640Z,18.70
2023-05-16T07:36:41.603Z,18.68
2023-05-16T07:39:10.150Z,18.69
2023-05-16T07:41:39.239Z,18.68
2023-05-16T07:44:07.836Z,18.68
2023-05-16T07:46:36.908Z,18.69
2023-05-16T07:49:05.657Z,18.69
2023-05-16T07:51:36.907Z,18.68
2023-05-16T07:54:05.598Z,18.67
2023-05-16T07:56:34.786Z,18.63
2023-05-16T07:59:03.444Z,18.64
2023-05-16T08:01:32.548Z,18.68
2023-05-16T08:04:01.174Z,18.68
2023-05-16T08:06:30.066Z,18.68
2023-05-16T08:08:58.744Z,18.68
2023-05-16T08:11:27.693Z,18.67
2023-05-16T08:13:56.137Z,18.63
2023-05-16T08:16:25.027Z,18.69
2023-05-16T08:18:53.787Z,18.69
2023-05-16T08:21:22.765Z,18.68
2023-05-16T08:23:51.525Z,18.68
2023-05-16T08:26:22.183Z,18.69
2023-05-16T08:28:50.782Z,18.69
2023-05-16T08:31:19.659Z,18.66
2023-05-16T08:33:48.182Z,18.67
2023-05-16T08:36:20.087Z,18.69
2023-05-16T08:38:51.170Z,18.66
2023-05-16T08:41:19.955Z,18.69
2023-05-16T08:43:48.661Z,18.69
2023-05-16T08:46:20.574Z,18.64
2023-05-16T08:48:54.394Z,18.63
2023-05-16T08:51:23.252Z,18.64
2023-05-16T08:53:58.020Z,18.53
2023-05-16T08:56:26.853Z,18.61
2023-05-16T08:58:55.731Z,18.64
2023-05-16T09:01:24.740Z,18.63
2023-05-16T09:03:53.447Z,18.60
2023-05-16T09:06:22.702Z,18.61
2023-05-16T09:08:51.357Z,18.64
2023-05-16T09:11:20.388Z,18.61
2023-05-16T09:13:49.647Z,18.64
2023-05-16T09:16:21.595Z,18.62
2023-05-16T09:19:00.797Z,18.62
2023-05-16T09:21:33.458Z,18.62
2023-05-16T09:24:09.236Z,18.63
2023-05-16T09:26:39.116Z,18.64
2023-05-16T09:29:14.237Z,18.64
2023-05-16T09:31:43.343Z,18.64
2023-05-16T09:34:13.280Z,18.62
2023-05-16T09:36:44.043Z,18.62
2023-05-16T09:39:13.018Z,18.62
2023-05-16T09:41:41.940Z,18.61
2023-05-16T09:44:10.741Z,18.60
2023-05-16T09:46:39.664Z,18.61
2023-05-16T09:49:09.447Z,18.61
2023-05-16T09:51:39.455Z,18.61
2023-05-16T09:54:11.115Z,18.62
2023-05-16T09:56:50.984Z,18.55
2023-05-16T09:59:19.592Z,18.62
2023-05-16T10:01:49.361Z,18.64
2023-05-16T10:04:18.066Z,18.68
2023-05-16T10:06:47.431Z,18.68
2023-05-16T10:09:16.555Z,18.71
2023-05-16T10:11:45.768Z,18.72
2023-05-16T10:14:14.355Z,18.74
2023-05-16T10:16:44.700Z,18.75
2023-05-16T10:19:13.441Z,18.77
2023-05-16T10:21:43.149Z,18.83
2023-05-16T10:24:12.038Z,18.85
2023-05-16T10:26:40.885Z,18.87
2023-05-16T10:29:09.709Z,18.87
2023-05-16T10:31:38.972Z,18.89
2023-05-16T10:34:07.489Z,18.89
2023-05-16T10:36:37.036Z,18.90
2023-05-16T10:39:05.767Z,18.89
2023-05-16T10:41:35.012Z,18.87
2023-05-16T10:44:05.109Z,18.88
2023-05-16T10:46:34.141Z,18.86
2023-05-16T10:49:26.011Z,18.85
2023-05-16T10:52:08.924Z,18.84
2023-05-16T10:54:53.582Z,18.85
2023-05-16T10:57:24.429Z,18.85
2023-05-16T10:59:55.308Z,18.83
2023-05-16T11:02:26.859Z,18.84
2023-05-16T11:04:59.706Z,18.81
2023-05-16T11:07:33.989Z,18.83
2023-05-16T11:10:10.276Z,18.81
2023-05-16T11:12:49.691Z,18.80
2023-05-16T11:15:27.028Z,18.82
2023-05-16T11:18:19.223Z,18.83
2023-05-16T11:20:48.168Z,18.81
2023-05-16T11:23:25.949Z,18.84
2023-05-16T11:25:58.749Z,18.85
2023-05-16T11:28:28.126Z,18.85
2023-05-16T11:31:00.308Z,18.85
2023-05-16T11:33:36.566Z,18.85
2023-05-16T11:38:44.181Z,18.86
2023-05-16T11:41:15.697Z,18.85
2023-05-16T11:43:46.162Z,18.77
2023-05-16T11:46:16.624Z,18.85
2023-05-16T11:48:47.690Z,18.82
2023-05-16T11:51:19.243Z,18.83
2023-05-16T11:53:50.278Z,18.83
2023-05-16T11:56:19.017Z,18.81
2023-05-16T11:58:48.576Z,18.81
2023-05-16T12:01:17.279Z,18.83
2023-05-16T12:03:47.441Z,18.77
2023-05-16T12:06:16.261Z,18.81
2023-05-16T12:08:51.783Z,18.83
2023-05-16T12:11:21.995Z,18.84
2023-05-16T12:13:50.898Z,18.85
2023-05-16T12:16:19.599Z,18.81
2023-05-16T12:18:48.784Z,18.86
2023-05-16T12:21:17.587Z,18.85
2023-05-16T12:23:46.557Z,18.86
2023-05-16T12:26:15.114Z,18.85
2023-05-16T12:28:44.764Z,18.85
2023-05-16T12:31:31.092Z,18.85
2023-05-16T12:34:01.413Z,18.85
2023-05-16T12:36:35.230Z,18.81
2023-05-16T12:39:04.644Z,18.86
2023-05-16T12:41:33.282Z,18.88
2023-05-16T12:44:19.994Z,18.89
2023-05-16T12:46:52.303Z,18.87
2023-05-16T12:49:23.156Z,18.88
2023-05-16T12:51:53.047Z,18.91
2023-05-16T12:54:23.407Z,18.93
2023-05-16T12:56:52.027Z,18.93
2023-05-16T12:59:21.009Z,18.95
2023-05-16T13:01:49.566Z,18.94
2023-05-16T13:04:20.299Z,18.97
2023-05-16T13:06:59.323Z,18.94
2023-05-16T13:09:32.487Z,18.96
2023-05-16T13:12:01.627Z,18.98
2023-05-16T13:14:31.418Z,18.98
2023-05-16T13:17:00.085Z,18.96
2023-05-16T13:19:31.928Z,18.99
2023-05-16T13:22:00.487Z,18.99
2023-05-16T13:24:29.386Z,18.97
2023-05-16T13:26:59.958Z,18.97
2023-05-16T13:29:28.870Z,18.96
2023-05-16T13:31:57.422Z,18.94
2023-05-16T13:34:26.340Z,18.94
2023-05-16T13:36:55.284Z,18.93
2023-05-16T13:39:24.242Z,18.93
2023-05-16T13:41:52.961Z,18.92
2023-05-16T13:44:22.826Z,18.88
2023-05-16T13:46:51.801Z,18.91
2023-05-16T13:49:21.094Z,18.88
2023-05-16T13:51:49.811Z,18.90
2023-05-16T13:54:20.256Z,18.91
2023-05-16T13:56:48.906Z,18.91
2023-05-16T13:59:27.508Z,18.90
2023-05-16T14:02:08.791Z,18.92
2023-05-16T14:04:37.755Z,18.92
2023-05-16T14:07:06.363Z,18.91
2023-05-16T14:09:37.548Z,18.90
2023-05-16T14:12:09.421Z,18.84
2023-05-16T14:14:39.330Z,18.90
2023-05-16T14:17:08.060Z,18.92
2023-05-16T14:19:37.469Z,18.94
2023-05-16T14:22:06.311Z,18.91
2023-05-16T14:24:35.426Z,18.93
2023-05-16T14:27:04.225Z,18.89
2023-05-16T14:29:33.116Z,18.92
2023-05-16T14:32:01.826Z,18.92
2023-05-16T14:34:30.930Z,18.92
2023-05-16T14:36:59.481Z,18.91
2023-05-16T14:39:28.515Z,18.92
2023-05-16T14:41:57.109Z,18.93
2023-05-16T14:44:26.121Z,18.93
2023-05-16T14:46:54.735Z,18.93
2023-05-16T14:49:23.530Z,18.93
2023-05-16T14:51:52.068Z,18.93
2023-05-16T14:54:21.477Z,18.94
2023-05-16T14:56:50.123Z,18.93
2023-05-16T14:59:19.031Z,18.94
2023-05-16T15:01:47.666Z,18.94
2023-05-16T15:04:16.619Z,18.94
2023-05-16T15:06:45.197Z,18.94
2023-05-16T15:09:14.282Z,18.93
2023-05-16T15:11:42.937Z,18.92
2023-05-16T15:14:12.017Z,18.93
2023-05-16T15:16:40.599Z,18.92
2023-05-16T15:19:09.570Z,18.92
2023-05-16T15:21:38.454Z,18.91
2023-05-16T15:24:08.531Z,18.92
2023-05-16T15:26:37.748Z,18.90
2023-05-16T15:29:06.693Z,18.90
2023-05-16T15:31:35.301Z,18.90
2023-05-16T15:34:06.466Z,18.90
2023-05-16T15:36:35.373Z,18.90
2023-05-16T15:39:04.829Z,18.91
2023-05-16T15:41:56.941Z,18.90
2023-05-16T15:44:22.215Z,18.90
2023-05-16T15:46:51.499Z,18.89
2023-05-16T15:49:21.603Z,18.90
2023-05-16T15:51:51.116Z,18.90
2023-05-16T15:54:20.104Z,18.82
2023-05-16T15:56:48.641Z,18.89
2023-05-16T15:59:17.645Z,18.83
2023-05-16T16:01:46.340Z,18.83
2023-05-16T16:04:15.512Z,18.84
2023-05-16T16:06:44.088Z,18.83
2023-05-16T16:09:12.969Z,18.83
2023-05-16T16:11:41.537Z,18.78
2023-05-16T16:14:11.518Z,18.79
2023-05-16T16:16:41.033Z,18.82
2023-05-16T16:19:10.382Z,18.80
2023-05-16T16:21:39.085Z,18.78
2023-05-16T16:24:08.289Z,18.77
2023-05-16T16:26:36.860Z,18.79
2023-05-16T16:29:06.676Z,18.77
2023-05-16T16:31:35.840Z,18.78
2023-05-16T16:34:04.502Z,18.79
2023-05-16T16:36:33.445Z,18.77
2023-05-16T16:39:02.126Z,18.77
2023-05-16T16:41:30.988Z,18.84
2023-05-16T16:43:59.521Z,18.70
2023-05-16T16:46:29.608Z,18.83
2023-05-16T16:48:58.219Z,18.80
2023-05-16T16:51:30.229Z,18.77
2023-05-16T16:53:59.079Z,18.78
2023-05-16T16:56:28.381Z,18.79
2023-05-16T16:58:57.223Z,18.76
2023-05-16T17:01:29.696Z,18.73
2023-05-16T17:03:59.548Z,18.75
2023-05-16T17:06:30.500Z,18.75
2023-05-16T17:09:03.960Z,18.73
2023-05-16T17:11:36.398Z,18.73
2023-05-16T17:14:06.456Z,18.70
2023-05-16T17:16:35.465Z,18.72
2023-05-16T17:19:05.228Z,18.68
2023-05-16T17:21:37.387Z,18.69
2023-05-16T17:24:07.260Z,18.65
2023-05-16T17:26:36.868Z,18.66
2023-05-16T17:29:06.196Z,18.66
2023-05-16T17:31:35.365Z,18.65
2023-05-16T17:34:03.947Z,18.65
2023-05-16T17:36:32.890Z,18.64
2023-05-16T17:39:01.499Z,18.62
2023-05-16T17:41:30.461Z,18.62
2023-05-16T17:43:59.408Z,18.61
2023-05-16T17:46:28.277Z,18.62
2023-05-16T17:48:56.802Z,18.63
2023-05-16T17:51:26.153Z,18.60
2023-05-16T17:53:55.335Z,18.59
2023-05-16T17:56:24.293Z,18.59
2023-05-16T17:58:53.542Z,18.59
2023-05-16T18:01:22.559Z,18.60
2023-05-16T18:03:51.192Z,18.60
2023-05-16T18:06:20.418Z,18.55
2023-05-16T18:08:48.943Z,18.52
2023-05-16T18:11:18.629Z,18.47
2023-05-16T18:13:47.333Z,18.51
2023-05-16T18:16:16.262Z,18.52
2023-05-16T18:18:45.112Z,18.57
2023-05-16T18:21:14.360Z,18.59
2023-05-16T18:23:43.111Z,18.58
2023-05-16T18:26:12.142Z,18.60
2023-05-16T18:28:40.925Z,18.59
2023-05-16T18:31:10.032Z,18.57
2023-05-16T18:33:38.594Z,18.61
2023-05-16T18:36:08.555Z,18.66
2023-05-16T18:38:37.138Z,18.65
2023-05-16T18:41:06.532Z,18.65
2023-05-16T18:43:36.874Z,18.67
2023-05-16T18:46:05.825Z,18.64
2023-05-16T18:48:36.031Z,18.66
2023-05-16T18:51:05.958Z,18.68
2023-05-16T18:53:36.099Z,18.67
2023-05-16T18:56:05.438Z,18.68
2023-05-16T18:58:33.884Z,18.68
2023-05-16T19:01:02.957Z,18.65
2023-05-16T19:03:31.819Z,18.69
2023-05-16T19:06:01.099Z,18.69
2023-05-16T19:08:40.346Z,18.67
2023-05-16T19:11:17.813Z,18.68
2023-05-16T19:13:47.434Z,18.67
2023-05-16T19:16:16.380Z,18.69
2023-05-16T19:18:45.220Z,18.69
2023-05-16T19:21:14.461Z,18.66
2023-05-16T19:23:43.114Z,18.66
2023-05-16T19:26:12.414Z,18.66
2023-05-16T19:28:41.548Z,18.64
2023-05-16T19:31:11.104Z,18.66
2023-05-16T19:33:39.625Z,18.64
2023-05-16T19:36:11.177Z,18.62
2023-05-16T19:38:39.739Z,18.62
2023-05-16T19:41:08.599Z,18.60
2023-05-16T19:43:37.251Z,18.60
2023-05-16T19:46:06.221Z,18.59
2023-05-16T19:48:35.605Z,18.58
2023-05-16T19:51:04.881Z,18.61
2023-05-16T19:53:33.452Z,18.60
2023-05-16T19:56:02.496Z,18.60
2023-05-16T19:58:31.120Z,18.60
2023-05-16T20:01:01.290Z,18.55
2023-05-16T20:03:30.014Z,18.61
2023-05-16T20:05:59.214Z,18.57
2023-05-16T20:08:27.970Z,18.60
2023-05-16T20:10:57.442Z,18.61
2023-05-16T20:13:26.367Z,18.61
2023-05-16T20:15:55.609Z,18.60
2023-05-16T20:18:24.219Z,18.59
2023-05-16T20:20:53.181Z,18.57
2023-05-16T20:23:21.873Z,18.57
2023-05-16T20:25:50.745Z,18.59
2023-05-16T20:28:19.312Z,18.59
2023-05-16T20:30:48.342Z,18.60
2023-05-16T20:33:17.166Z,18.58
2023-05-16T20:35:46.354Z,18.59
2023-05-16T20:38:14.934Z,18.53
2023-05-16T20:40:45.829Z,18.55
2023-05-16T20:43:14.467Z,18.53
2023-05-16T20:45:43.332Z,18.58
2023-05-16T20:48:14.174Z,18.57
2023-05-16T20:50:43.210Z,18.57
2023-05-16T20:53:11.764Z,18.58
2023-05-16T20:55:40.635Z,18.58
2023-05-16T20:58:09.493Z,18.57
2023-05-16T21:00:38.510Z,18.58
2023-05-16T21:03:07.112Z,18.57
2023-05-16T21:05:36.630Z,18.58
2023-05-16T21:08:05.721Z,18.58
2023-05-16T21:10:34.720Z,18.55
2023-05-16T21:13:04.084Z,18.56
2023-05-16T21:15:32.939Z,18.57
2023-05-16T21:18:01.568Z,18.56
2023-05-16T21:20:30.950Z,18.57
2023-05-16T21:22:59.432Z,18.55
2023-05-16T21:25:28.858Z,18.55
2023-05-16T21:27:57.611Z,18.57
2023-05-16T21:30:26.418Z,18.55
2023-05-16T21:32:55.063Z,18.55
2023-05-16T21:35:24.426Z,18.57
2023-05-16T21:37:52.898Z,18.57
2023-05-16T21:40:25.347Z,18.56
2023-05-16T21:42:53.955Z,18.57
2023-05-16T21:45:23.026Z,18.56
2023-05-16T21:47:51.558Z,18.55
2023-05-16T21:50:20.918Z,18.53
2023-05-16T21:52:49.428Z,18.55
2023-05-16T21:55:18.488Z,18.55
2023-05-16T21:57:46.993Z,18.55
2023-05-16T22:00:16.974Z,18.54
2023-05-16T22:02:45.823Z,18.54
2023-05-16T22:05:15.069Z,18.53
2023-05-16T22:07:43.887Z,18.53
2023-05-16T22:10:12.871Z,18.55
2023-05-16T22:12:41.401Z,18.54
2023-05-16T22:15:10.867Z,18.53
2023-05-16T22:17:39.668Z,18.52
2023-05-16T22:20:09.377Z,18.55
2023-05-16T22:22:37.933Z,18.52
2023-05-16T22:25:07.538Z,18.53
2023-05-16T22:27:36.076Z,18.51
2023-05-16T22:30:06.327Z,18.54
2023-05-16T22:32:34.908Z,18.54
2023-05-16T22:35:04.302Z,18.53
2023-05-16T22:37:32.803Z,18.54
2023-05-16T22:40:01.891Z,18.52
2023-05-16T22:42:31.525Z,18.54
2023-05-16T22:45:00.455Z,18.52
2023-05-16T22:47:29.042Z,18.53
2023-05-16T22:49:57.898Z,18.51
2023-05-16T22:52:26.367Z,18.51
2023-05-16T22:54:55.236Z,18.53
2023-05-16T22:57:23.794Z,18.53
2023-05-16T22:59:53.062Z,18.53
2023-05-16T23:02:21.553Z,18.46
2023-05-16T23:04:50.645Z,18.52
2023-05-16T23:07:19.352Z,18.52
2023-05-16T23:09:48.640Z,18.48
2023-05-16T23:12:17.326Z,18.51
2023-05-16T23:14:46.177Z,18.52
2023-05-16T23:17:15.188Z,18.50
2023-05-16T23:19:44.156Z,18.47
2023-05-16T23:22:12.643Z,18.51
2023-05-16T23:24:41.488Z,18.49
2023-05-16T23:27:10.087Z,18.51
2023-05-16T23:29:39.089Z,18.51
2023-05-16T23:32:08.195Z,18.51
2023-05-16T23:34:37.037Z,18.51
2023-05-16T23:37:05.908Z,18.41
2023-05-16T23:39:34.817Z,18.51
2023-05-16T23:42:03.357Z,18.51
2023-05-16T23:44:33.787Z,18.50
2023-05-16T23:47:02.283Z,18.50
2023-05-16T23:49:31.097Z,18.47
2023-05-16T23:51:59.594Z,18.51
2023-05-16T23:54:28.398Z,18.51
2023-05-16T23:56:56.918Z,18.50
2023-05-16T23:59:25.745Z,18.47
